sensor_id;sensor_type;location;lat;lon;timestamp;P1;durP1;ratioP1;P2;durP2;ratioP2
9968;SDS011;5025;48.890;9.278;2023-08-30T00:01:21;6.90;;;6.40;;
9968;SDS011;5025;48.890;9.278;2023-08-30T00:03:46;6.40;;;6.00;;
9968;SDS011;5025;48.890;9.278;2023-08-30T00:06:12;6.20;;;5.80;;
9968;SDS011;5025;48.890;9.278;2023-08-30T00:08:37;6.23;;;5.83;;
9968;SDS011;5025;48.890;9.278;2023-08-30T00:11:02;5.93;;;5.63;;
9968;SDS011;5025;48.890;9.278;2023-08-30T00:13:30;5.83;;;5.50;;
9968;SDS011;5025;48.890;9.278;2023-08-30T00:15:57;5.80;;;5.50;;
9968;SDS011;5025;48.890;9.278;2023-08-30T00:18:22;6.23;;;5.87;;
9968;SDS011;5025;48.890;9.278;2023-08-30T00:20:48;6.00;;;5.70;;
9968;SDS011;5025;48.890;9.278;2023-08-30T00:23:13;6.13;;;5.77;;
9968;SDS011;5025;48.890;9.278;2023-08-30T00:25:39;6.20;;;5.80;;
9968;SDS011;5025;48.890;9.278;2023-08-30T00:28:04;6.03;;;5.73;;
9968;SDS011;5025;48.890;9.278;2023-08-30T00:30:30;6.63;;;6.23;;
9968;SDS011;5025;48.890;9.278;2023-08-30T00:32:55;6.37;;;5.97;;
9968;SDS011;5025;48.890;9.278;2023-08-30T00:35:20;6.40;;;6.00;;
9968;SDS011;5025;48.890;9.278;2023-08-30T00:37:45;6.20;;;5.80;;
9968;SDS011;5025;48.890;9.278;2023-08-30T00:40:11;5.53;;;5.27;;
9968;SDS011;5025;48.890;9.278;2023-08-30T00:42:36;5.97;;;5.63;;
9968;SDS011;5025;48.890;9.278;2023-08-30T00:45:02;6.10;;;5.70;;
9968;SDS011;5025;48.890;9.278;2023-08-30T00:47:27;6.33;;;5.93;;
9968;SDS011;5025;48.890;9.278;2023-08-30T00:49:53;5.70;;;5.40;;
9968;SDS011;5025;48.890;9.278;2023-08-30T00:52:18;6.73;;;6.33;;
9968;SDS011;5025;48.890;9.278;2023-08-30T00:54:44;6.20;;;5.90;;
9968;SDS011;5025;48.890;9.278;2023-08-30T00:57:09;5.60;;;5.30;;
9968;SDS011;5025;48.890;9.278;2023-08-30T00:59:34;5.63;;;5.33;;
9968;SDS011;5025;48.890;9.278;2023-08-30T01:02:00;5.73;;;5.33;;
9968;SDS011;5025;48.890;9.278;2023-08-30T01:04:29;5.93;;;5.63;;
9968;SDS011;5025;48.890;9.278;2023-08-30T01:06:54;5.57;;;5.27;;
9968;SDS011;5025;48.890;9.278;2023-08-30T01:09:19;5.50;;;5.20;;
9968;SDS011;5025;48.890;9.278;2023-08-30T01:11:48;5.80;;;5.50;;
9968;SDS011;5025;48.890;9.278;2023-08-30T01:14:20;5.67;;;5.37;;
9968;SDS011;5025;48.890;9.278;2023-08-30T01:16:47;6.20;;;5.70;;
9968;SDS011;5025;48.890;9.278;2023-08-30T01:22:16;5.70;;;5.40;;
9968;SDS011;5025;48.890;9.278;2023-08-30T01:24:58;5.63;;;5.33;;
9968;SDS011;5025;48.890;9.278;2023-08-30T01:27:34;5.87;;;5.57;;
9968;SDS011;5025;48.890;9.278;2023-08-30T01:30:02;5.80;;;5.50;;
9968;SDS011;5025;48.890;9.278;2023-08-30T01:32:32;5.77;;;5.47;;
9968;SDS011;5025;48.890;9.278;2023-08-30T01:34:59;6.10;;;5.70;;
9968;SDS011;5025;48.890;9.278;2023-08-30T01:37:26;5.60;;;5.30;;
9968;SDS011;5025;48.890;9.278;2023-08-30T01:39:52;5.70;;;5.40;;
9968;SDS011;5025;48.890;9.278;2023-08-30T01:42:21;5.70;;;5.40;;
9968;SDS011;5025;48.890;9.278;2023-08-30T01:44:48;5.30;;;5.00;;
9968;SDS011;5025;48.890;9.278;2023-08-30T01:47:19;5.50;;;5.20;;
9968;SDS011;5025;48.890;9.278;2023-08-30T01:49:46;5.30;;;5.00;;
9968;SDS011;5025;48.890;9.278;2023-08-30T01:52:12;5.40;;;5.10;;
9968;SDS011;5025;48.890;9.278;2023-08-30T01:54:38;5.23;;;4.93;;
9968;SDS011;5025;48.890;9.278;2023-08-30T01:57:05;5.70;;;5.30;;
9968;SDS011;5025;48.890;9.278;2023-08-30T01:59:31;5.63;;;5.33;;
9968;SDS011;5025;48.890;9.278;2023-08-30T02:01:56;5.43;;;5.13;;
9968;SDS011;5025;48.890;9.278;2023-08-30T02:04:22;5.40;;;5.10;;
9968;SDS011;5025;48.890;9.278;2023-08-30T02:09:26;5.70;;;5.40;;
9968;SDS011;5025;48.890;9.278;2023-08-30T02:11:55;5.97;;;5.47;;
9968;SDS011;5025;48.890;9.278;2023-08-30T02:14:23;5.70;;;5.40;;
9968;SDS011;5025;48.890;9.278;2023-08-30T02:16:51;5.90;;;5.60;;
9968;SDS011;5025;48.890;9.278;2023-08-30T02:19:17;5.80;;;5.50;;
9968;SDS011;5025;48.890;9.278;2023-08-30T02:21:45;6.00;;;5.70;;
9968;SDS011;5025;48.890;9.278;2023-08-30T02:24:11;5.70;;;5.40;;
9968;SDS011;5025;48.890;9.278;2023-08-30T02:26:36;5.80;;;5.40;;
9968;SDS011;5025;48.890;9.278;2023-08-30T02:29:01;5.60;;;5.30;;
9968;SDS011;5025;48.890;9.278;2023-08-30T02:31:27;5.83;;;5.43;;
9968;SDS011;5025;48.890;9.278;2023-08-30T02:33:53;5.20;;;4.90;;
9968;SDS011;5025;48.890;9.278;2023-08-30T02:36:19;5.40;;;5.10;;
9968;SDS011;5025;48.890;9.278;2023-08-30T02:38:44;5.20;;;4.90;;
9968;SDS011;5025;48.890;9.278;2023-08-30T02:41:09;5.43;;;5.10;;
9968;SDS011;5025;48.890;9.278;2023-08-30T02:43:35;5.27;;;4.97;;
9968;SDS011;5025;48.890;9.278;2023-08-30T02:46:00;5.40;;;5.10;;
9968;SDS011;5025;48.890;9.278;2023-08-30T02:48:26;5.23;;;4.93;;
9968;SDS011;5025;48.890;9.278;2023-08-30T02:50:51;5.63;;;5.33;;
9968;SDS011;5025;48.890;9.278;2023-08-30T02:53:17;4.73;;;4.47;;
9968;SDS011;5025;48.890;9.278;2023-08-30T02:55:42;5.13;;;4.83;;
9968;SDS011;5025;48.890;9.278;2023-08-30T02:58:07;5.87;;;5.47;;
9968;SDS011;5025;48.890;9.278;2023-08-30T03:00:32;5.23;;;4.93;;
9968;SDS011;5025;48.890;9.278;2023-08-30T03:02:59;4.97;;;4.77;;
9968;SDS011;5025;48.890;9.278;2023-08-30T03:05:24;4.90;;;4.70;;
9968;SDS011;5025;48.890;9.278;2023-08-30T03:07:50;5.67;;;5.37;;
9968;SDS011;5025;48.890;9.278;2023-08-30T03:10:16;5.80;;;5.50;;
9968;SDS011;5025;48.890;9.278;2023-08-30T03:12:41;5.20;;;5.00;;
9968;SDS011;5025;48.890;9.278;2023-08-30T03:15:06;6.17;;;5.80;;
9968;SDS011;5025;48.890;9.278;2023-08-30T03:17:32;7.40;;;7.00;;
9968;SDS011;5025;48.890;9.278;2023-08-30T03:19:57;7.60;;;7.10;;
9968;SDS011;5025;48.890;9.278;2023-08-30T03:22:23;6.47;;;6.13;;
9968;SDS011;5025;48.890;9.278;2023-08-30T03:24:48;6.30;;;5.90;;
9968;SDS011;5025;48.890;9.278;2023-08-30T03:27:15;7.43;;;6.93;;
9968;SDS011;5025;48.890;9.278;2023-08-30T03:29:41;6.90;;;6.50;;
9968;SDS011;5025;48.890;9.278;2023-08-30T03:32:06;7.03;;;6.63;;
9968;SDS011;5025;48.890;9.278;2023-08-30T03:34:31;6.40;;;6.10;;
9968;SDS011;5025;48.890;9.278;2023-08-30T03:36:57;7.00;;;6.60;;
9968;SDS011;5025;48.890;9.278;2023-08-30T03:39:22;6.93;;;6.50;;
9968;SDS011;5025;48.890;9.278;2023-08-30T03:41:48;7.07;;;6.67;;
9968;SDS011;5025;48.890;9.278;2023-08-30T03:44:14;7.17;;;6.70;;
9968;SDS011;5025;48.890;9.278;2023-08-30T03:46:39;8.07;;;7.43;;
9968;SDS011;5025;48.890;9.278;2023-08-30T03:49:05;7.27;;;6.87;;
9968;SDS011;5025;48.890;9.278;2023-08-30T03:51:30;7.27;;;6.87;;
9968;SDS011;5025;48.890;9.278;2023-08-30T03:53:55;7.57;;;7.07;;
9968;SDS011;5025;48.890;9.278;2023-08-30T03:56:23;7.90;;;7.33;;
9968;SDS011;5025;48.890;9.278;2023-08-30T03:58:48;7.63;;;7.13;;
9968;SDS011;5025;48.890;9.278;2023-08-30T04:01:14;6.80;;;6.40;;
9968;SDS011;5025;48.890;9.278;2023-08-30T04:03:39;6.87;;;6.37;;
9968;SDS011;5025;48.890;9.278;2023-08-30T04:06:04;6.43;;;6.13;;
9968;SDS011;5025;48.890;9.278;2023-08-30T04:08:30;7.00;;;6.50;;
9968;SDS011;5025;48.890;9.278;2023-08-30T04:10:55;6.77;;;6.37;;
9968;SDS011;5025;48.890;9.278;2023-08-30T04:13:20;6.47;;;6.10;;
9968;SDS011;5025;48.890;9.278;2023-08-30T04:15:45;6.03;;;5.63;;
9968;SDS011;5025;48.890;9.278;2023-08-30T04:18:11;5.63;;;5.30;;
9968;SDS011;5025;48.890;9.278;2023-08-30T04:20:36;6.17;;;5.87;;
9968;SDS011;5025;48.890;9.278;2023-08-30T04:23:01;6.13;;;5.73;;
9968;SDS011;5025;48.890;9.278;2023-08-30T04:25:30;5.50;;;5.20;;
9968;SDS011;5025;48.890;9.278;2023-08-30T04:27:56;5.97;;;5.67;;
9968;SDS011;5025;48.890;9.278;2023-08-30T04:30:21;6.03;;;5.73;;
9968;SDS011;5025;48.890;9.278;2023-08-30T04:32:47;5.70;;;5.40;;
9968;SDS011;5025;48.890;9.278;2023-08-30T04:35:12;5.50;;;5.20;;
9968;SDS011;5025;48.890;9.278;2023-08-30T04:37:37;5.43;;;5.13;;
9968;SDS011;5025;48.890;9.278;2023-08-30T04:40:05;5.50;;;5.20;;
9968;SDS011;5025;48.890;9.278;2023-08-30T04:42:34;5.27;;;4.97;;
9968;SDS011;5025;48.890;9.278;2023-08-30T04:44:59;5.50;;;5.20;;
9968;SDS011;5025;48.890;9.278;2023-08-30T04:47:25;5.20;;;4.90;;
9968;SDS011;5025;48.890;9.278;2023-08-30T04:49:51;5.60;;;5.30;;
9968;SDS011;5025;48.890;9.278;2023-08-30T04:52:17;5.10;;;4.80;;
9968;SDS011;5025;48.890;9.278;2023-08-30T04:54:42;4.80;;;4.60;;
9968;SDS011;5025;48.890;9.278;2023-08-30T04:57:07;5.03;;;4.80;;
9968;SDS011;5025;48.890;9.278;2023-08-30T04:59:33;5.17;;;4.87;;
9968;SDS011;5025;48.890;9.278;2023-08-30T05:01:58;5.03;;;4.80;;
9968;SDS011;5025;48.890;9.278;2023-08-30T05:04:24;4.67;;;4.40;;
9968;SDS011;5025;48.890;9.278;2023-08-30T05:06:49;4.80;;;4.60;;
9968;SDS011;5025;48.890;9.278;2023-08-30T05:09:15;4.97;;;4.67;;
9968;SDS011;5025;48.890;9.278;2023-08-30T05:11:40;5.00;;;4.80;;
9968;SDS011;5025;48.890;9.278;2023-08-30T05:14:06;4.63;;;4.43;;
9968;SDS011;5025;48.890;9.278;2023-08-30T05:16:32;4.83;;;4.53;;
9968;SDS011;5025;48.890;9.278;2023-08-30T05:18:57;4.80;;;4.60;;
9968;SDS011;5025;48.890;9.278;2023-08-30T05:21:22;4.80;;;4.60;;
9968;SDS011;5025;48.890;9.278;2023-08-30T05:23:47;4.60;;;4.40;;
9968;SDS011;5025;48.890;9.278;2023-08-30T05:26:13;4.77;;;4.57;;
9968;SDS011;5025;48.890;9.278;2023-08-30T05:28:38;4.37;;;4.17;;
9968;SDS011;5025;48.890;9.278;2023-08-30T05:31:04;4.70;;;4.50;;
9968;SDS011;5025;48.890;9.278;2023-08-30T05:33:29;5.00;;;4.70;;
9968;SDS011;5025;48.890;9.278;2023-08-30T05:35:55;5.37;;;5.07;;
9968;SDS011;5025;48.890;9.278;2023-08-30T05:38:20;5.57;;;5.17;;
9968;SDS011;5025;48.890;9.278;2023-08-30T05:40:45;6.07;;;5.77;;
9968;SDS011;5025;48.890;9.278;2023-08-30T05:43:11;6.30;;;5.90;;
9968;SDS011;5025;48.890;9.278;2023-08-30T05:45:36;6.17;;;5.87;;
9968;SDS011;5025;48.890;9.278;2023-08-30T05:48:02;5.90;;;5.60;;
9968;SDS011;5025;48.890;9.278;2023-08-30T05:50:28;6.07;;;5.77;;
9968;SDS011;5025;48.890;9.278;2023-08-30T05:52:53;6.23;;;5.83;;
9968;SDS011;5025;48.890;9.278;2023-08-30T05:55:18;6.03;;;5.63;;
9968;SDS011;5025;48.890;9.278;2023-08-30T05:57:44;6.80;;;6.33;;
9968;SDS011;5025;48.890;9.278;2023-08-30T06:00:09;6.10;;;5.70;;
9968;SDS011;5025;48.890;9.278;2023-08-30T06:02:35;6.40;;;6.00;;
9968;SDS011;5025;48.890;9.278;2023-08-30T06:05:00;6.73;;;6.33;;
9968;SDS011;5025;48.890;9.278;2023-08-30T06:07:25;5.93;;;5.63;;
9968;SDS011;5025;48.890;9.278;2023-08-30T06:09:51;5.80;;;5.50;;
9968;SDS011;5025;48.890;9.278;2023-08-30T06:12:16;6.30;;;5.90;;
9968;SDS011;5025;48.890;9.278;2023-08-30T06:14:42;6.53;;;6.13;;
9968;SDS011;5025;48.890;9.278;2023-08-30T06:17:07;6.50;;;6.10;;
9968;SDS011;5025;48.890;9.278;2023-08-30T06:19:32;6.63;;;6.23;;
9968;SDS011;5025;48.890;9.278;2023-08-30T06:21:57;6.73;;;6.33;;
9968;SDS011;5025;48.890;9.278;2023-08-30T06:24:23;7.27;;;6.77;;
9968;SDS011;5025;48.890;9.278;2023-08-30T06:26:48;6.87;;;6.43;;
9968;SDS011;5025;48.890;9.278;2023-08-30T06:29:13;6.57;;;6.17;;
9968;SDS011;5025;48.890;9.278;2023-08-30T06:31:38;6.47;;;6.07;;
9968;SDS011;5025;48.890;9.278;2023-08-30T06:34:05;6.50;;;6.13;;
9968;SDS011;5025;48.890;9.278;2023-08-30T06:36:30;6.93;;;6.43;;
9968;SDS011;5025;48.890;9.278;2023-08-30T06:38:55;7.13;;;6.73;;
9968;SDS011;5025;48.890;9.278;2023-08-30T06:41:21;7.50;;;7.00;;
9968;SDS011;5025;48.890;9.278;2023-08-30T06:43:46;6.90;;;6.50;;
9968;SDS011;5025;48.890;9.278;2023-08-30T06:46:11;7.27;;;6.70;;
9968;SDS011;5025;48.890;9.278;2023-08-30T06:48:36;6.97;;;6.57;;
9968;SDS011;5025;48.890;9.278;2023-08-30T06:51:01;7.37;;;6.90;;
9968;SDS011;5025;48.890;9.278;2023-08-30T06:53:27;8.07;;;7.57;;
9968;SDS011;5025;48.890;9.278;2023-08-30T06:55:56;8.53;;;7.93;;
9968;SDS011;5025;48.890;9.278;2023-08-30T06:58:23;8.70;;;8.10;;
9968;SDS011;5025;48.890;9.278;2023-08-30T07:00:48;8.53;;;7.93;;
9968;SDS011;5025;48.890;9.278;2023-08-30T07:03:13;9.67;;;9.07;;
9968;SDS011;5025;48.890;9.278;2023-08-30T07:05:38;9.60;;;8.90;;
9968;SDS011;5025;48.890;9.278;2023-08-30T07:08:04;10.83;;;10.03;;
9968;SDS011;5025;48.890;9.278;2023-08-30T07:10:29;9.00;;;8.40;;
9968;SDS011;5025;48.890;9.278;2023-08-30T07:12:54;9.30;;;8.60;;
9968;SDS011;5025;48.890;9.278;2023-08-30T07:15:19;9.10;;;8.50;;
9968;SDS011;5025;48.890;9.278;2023-08-30T07:17:45;10.27;;;9.47;;
9968;SDS011;5025;48.890;9.278;2023-08-30T07:20:10;9.40;;;8.70;;
9968;SDS011;5025;48.890;9.278;2023-08-30T07:22:35;9.50;;;8.80;;
9968;SDS011;5025;48.890;9.278;2023-08-30T07:25:01;9.43;;;8.80;;
9968;SDS011;5025;48.890;9.278;2023-08-30T07:27:28;10.37;;;9.50;;
9968;SDS011;5025;48.890;9.278;2023-08-30T07:29:53;9.67;;;8.97;;
9968;SDS011;5025;48.890;9.278;2023-08-30T07:32:18;9.50;;;8.90;;
9968;SDS011;5025;48.890;9.278;2023-08-30T07:34:44;9.40;;;8.80;;
9968;SDS011;5025;48.890;9.278;2023-08-30T07:37:21;9.33;;;8.73;;
9968;SDS011;5025;48.890;9.278;2023-08-30T07:39:47;9.03;;;8.43;;
9968;SDS011;5025;48.890;9.278;2023-08-30T07:42:13;8.40;;;7.80;;
9968;SDS011;5025;48.890;9.278;2023-08-30T07:44:39;9.20;;;8.60;;
9968;SDS011;5025;48.890;9.278;2023-08-30T07:47:05;9.70;;;8.90;;
9968;SDS011;5025;48.890;9.278;2023-08-30T07:49:30;8.83;;;8.17;;
9968;SDS011;5025;48.890;9.278;2023-08-30T07:51:55;9.13;;;8.53;;
9968;SDS011;5025;48.890;9.278;2023-08-30T07:54:21;8.97;;;8.37;;
9968;SDS011;5025;48.890;9.278;2023-08-30T07:56:46;9.47;;;8.77;;
9968;SDS011;5025;48.890;9.278;2023-08-30T07:59:12;8.60;;;8.00;;
9968;SDS011;5025;48.890;9.278;2023-08-30T08:01:37;10.17;;;9.47;;
9968;SDS011;5025;48.890;9.278;2023-08-30T08:04:03;10.40;;;9.60;;
9968;SDS011;5025;48.890;9.278;2023-08-30T08:06:28;9.53;;;8.87;;
9968;SDS011;5025;48.890;9.278;2023-08-30T08:08:53;9.63;;;8.83;;
9968;SDS011;5025;48.890;9.278;2023-08-30T08:11:19;8.80;;;8.10;;
9968;SDS011;5025;48.890;9.278;2023-08-30T08:13:44;8.97;;;8.37;;
9968;SDS011;5025;48.890;9.278;2023-08-30T08:16:09;8.70;;;8.10;;
9968;SDS011;5025;48.890;9.278;2023-08-30T08:18:34;9.10;;;8.50;;
9968;SDS011;5025;48.890;9.278;2023-08-30T08:21:00;8.80;;;8.17;;
9968;SDS011;5025;48.890;9.278;2023-08-30T08:23:25;8.27;;;7.70;;
9968;SDS011;5025;48.890;9.278;2023-08-30T08:25:56;8.03;;;7.53;;
9968;SDS011;5025;48.890;9.278;2023-08-30T08:28:22;9.73;;;9.00;;
9968;SDS011;5025;48.890;9.278;2023-08-30T08:30:47;8.20;;;7.60;;
9968;SDS011;5025;48.890;9.278;2023-08-30T08:33:16;7.70;;;7.20;;
9968;SDS011;5025;48.890;9.278;2023-08-30T08:35:42;7.60;;;7.10;;
9968;SDS011;5025;48.890;9.278;2023-08-30T08:38:07;6.83;;;6.43;;
9968;SDS011;5025;48.890;9.278;2023-08-30T08:40:36;7.60;;;7.10;;
9968;SDS011;5025;48.890;9.278;2023-08-30T08:43:03;7.10;;;6.60;;
9968;SDS011;5025;48.890;9.278;2023-08-30T08:45:29;7.50;;;6.90;;
9968;SDS011;5025;48.890;9.278;2023-08-30T08:47:59;7.13;;;6.73;;
9968;SDS011;5025;48.890;9.278;2023-08-30T08:50:25;7.23;;;6.73;;
9968;SDS011;5025;48.890;9.278;2023-08-30T08:52:53;6.73;;;6.33;;
9968;SDS011;5025;48.890;9.278;2023-08-30T08:55:18;6.67;;;6.27;;
9968;SDS011;5025;48.890;9.278;2023-08-30T08:57:44;6.20;;;5.70;;
9968;SDS011;5025;48.890;9.278;2023-08-30T09:00:10;6.00;;;5.70;;
9968;SDS011;5025;48.890;9.278;2023-08-30T09:02:36;5.63;;;5.23;;
9968;SDS011;5025;48.890;9.278;2023-08-30T09:05:02;6.23;;;5.83;;
9968;SDS011;5025;48.890;9.278;2023-08-30T09:07:30;6.20;;;5.80;;
9968;SDS011;5025;48.890;9.278;2023-08-30T09:09:55;6.20;;;5.80;;
9968;SDS011;5025;48.890;9.278;2023-08-30T09:12:21;5.70;;;5.20;;
9968;SDS011;5025;48.890;9.278;2023-08-30T09:14:54;5.40;;;5.10;;
9968;SDS011;5025;48.890;9.278;2023-08-30T09:17:20;5.93;;;5.33;;
9968;SDS011;5025;48.890;9.278;2023-08-30T09:19:46;5.97;;;5.47;;
9968;SDS011;5025;48.890;9.278;2023-08-30T09:22:11;5.17;;;4.87;;
9968;SDS011;5025;48.890;9.278;2023-08-30T09:24:37;4.83;;;4.53;;
9968;SDS011;5025;48.890;9.278;2023-08-30T09:27:03;5.17;;;4.80;;
9968;SDS011;5025;48.890;9.278;2023-08-30T09:29:29;4.80;;;4.50;;
9968;SDS011;5025;48.890;9.278;2023-08-30T09:31:55;4.40;;;4.13;;
9968;SDS011;5025;48.890;9.278;2023-08-30T09:34:23;4.53;;;4.33;;
9968;SDS011;5025;48.890;9.278;2023-08-30T09:36:50;4.70;;;4.40;;
9968;SDS011;5025;48.890;9.278;2023-08-30T09:39:15;4.10;;;3.90;;
9968;SDS011;5025;48.890;9.278;2023-08-30T09:41:41;4.53;;;4.13;;
9968;SDS011;5025;48.890;9.278;2023-08-30T09:44:11;4.50;;;4.20;;
9968;SDS011;5025;48.890;9.278;2023-08-30T09:46:43;4.17;;;3.97;;
9968;SDS011;5025;48.890;9.278;2023-08-30T09:49:14;3.80;;;3.60;;
9968;SDS011;5025;48.890;9.278;2023-08-30T09:51:40;3.73;;;3.53;;
9968;SDS011;5025;48.890;9.278;2023-08-30T09:54:10;3.47;;;3.20;;
9968;SDS011;5025;48.890;9.278;2023-08-30T09:56:40;3.43;;;3.23;;
9968;SDS011;5025;48.890;9.278;2023-08-30T09:59:07;3.60;;;3.40;;
9968;SDS011;5025;48.890;9.278;2023-08-30T10:01:33;3.80;;;3.60;;
9968;SDS011;5025;48.890;9.278;2023-08-30T10:03:59;3.70;;;3.50;;
9968;SDS011;5025;48.890;9.278;2023-08-30T10:06:28;3.60;;;3.40;;
9968;SDS011;5025;48.890;9.278;2023-08-30T10:08:54;3.40;;;3.20;;
9968;SDS011;5025;48.890;9.278;2023-08-30T10:11:20;3.50;;;3.30;;
9968;SDS011;5025;48.890;9.278;2023-08-30T10:13:46;3.00;;;2.90;;
9968;SDS011;5025;48.890;9.278;2023-08-30T10:16:14;3.07;;;2.97;;
9968;SDS011;5025;48.890;9.278;2023-08-30T10:18:45;3.47;;;3.17;;
9968;SDS011;5025;48.890;9.278;2023-08-30T10:21:15;2.97;;;2.87;;
9968;SDS011;5025;48.890;9.278;2023-08-30T10:23:43;3.03;;;2.80;;
9968;SDS011;5025;48.890;9.278;2023-08-30T10:26:11;2.70;;;2.60;;
9968;SDS011;5025;48.890;9.278;2023-08-30T10:28:37;2.83;;;2.63;;
9968;SDS011;5025;48.890;9.278;2023-08-30T10:31:04;2.90;;;2.70;;
9968;SDS011;5025;48.890;9.278;2023-08-30T10:33:30;2.70;;;2.60;;
9968;SDS011;5025;48.890;9.278;2023-08-30T10:36:02;2.47;;;2.37;;
9968;SDS011;5025;48.890;9.278;2023-08-30T10:38:32;2.60;;;2.40;;
9968;SDS011;5025;48.890;9.278;2023-08-30T10:41:06;2.50;;;2.40;;
9968;SDS011;5025;48.890;9.278;2023-08-30T10:43:33;2.37;;;2.27;;
9968;SDS011;5025;48.890;9.278;2023-08-30T10:46:00;2.50;;;2.40;;
9968;SDS011;5025;48.890;9.278;2023-08-30T10:48:35;3.30;;;2.40;;
9968;SDS011;5025;48.890;9.278;2023-08-30T10:51:01;2.43;;;2.30;;
9968;SDS011;5025;48.890;9.278;2023-08-30T10:53:29;2.33;;;2.13;;
9968;SDS011;5025;48.890;9.278;2023-08-30T10:56:09;2.53;;;2.20;;
9968;SDS011;5025;48.890;9.278;2023-08-30T10:58:39;2.30;;;2.20;;
9968;SDS011;5025;48.890;9.278;2023-08-30T11:01:07;2.20;;;2.10;;
9968;SDS011;5025;48.890;9.278;2023-08-30T11:03:35;1.70;;;1.70;;
9968;SDS011;5025;48.890;9.278;2023-08-30T11:06:00;1.87;;;1.87;;
9968;SDS011;5025;48.890;9.278;2023-08-30T11:08:28;2.40;;;2.20;;
9968;SDS011;5025;48.890;9.278;2023-08-30T11:11:27;1.70;;;1.70;;
9968;SDS011;5025;48.890;9.278;2023-08-30T11:13:45;2.27;;;2.17;;
9968;SDS011;5025;48.890;9.278;2023-08-30T11:16:11;2.07;;;1.97;;
9968;SDS011;5025;48.890;9.278;2023-08-30T11:18:37;2.23;;;2.13;;
9968;SDS011;5025;48.890;9.278;2023-08-30T11:21:07;2.07;;;1.97;;
9968;SDS011;5025;48.890;9.278;2023-08-30T11:23:34;2.13;;;2.03;;
9968;SDS011;5025;48.890;9.278;2023-08-30T11:25:59;2.50;;;2.33;;
9968;SDS011;5025;48.890;9.278;2023-08-30T11:28:27;2.40;;;2.30;;
9968;SDS011;5025;48.890;9.278;2023-08-30T11:30:53;1.83;;;1.83;;
9968;SDS011;5025;48.890;9.278;2023-08-30T11:33:19;1.80;;;1.80;;
9968;SDS011;5025;48.890;9.278;2023-08-30T11:35:45;2.07;;;1.90;;
9968;SDS011;5025;48.890;9.278;2023-08-30T11:38:14;1.73;;;1.70;;
9968;SDS011;5025;48.890;9.278;2023-08-30T11:40:39;1.70;;;1.70;;
9968;SDS011;5025;48.890;9.278;2023-08-30T11:43:04;1.93;;;1.83;;
9968;SDS011;5025;48.890;9.278;2023-08-30T11:45:32;2.20;;;2.10;;
9968;SDS011;5025;48.890;9.278;2023-08-30T11:47:59;2.23;;;2.13;;
9968;SDS011;5025;48.890;9.278;2023-08-30T11:50:24;2.20;;;2.10;;
9968;SDS011;5025;48.890;9.278;2023-08-30T11:52:50;2.40;;;2.10;;
9968;SDS011;5025;48.890;9.278;2023-08-30T11:55:16;2.70;;;2.50;;
9968;SDS011;5025;48.890;9.278;2023-08-30T11:57:43;2.70;;;2.50;;
9968;SDS011;5025;48.890;9.278;2023-08-30T12:00:11;2.20;;;2.10;;
9968;SDS011;5025;48.890;9.278;2023-08-30T12:02:37;2.20;;;2.10;;
9968;SDS011;5025;48.890;9.278;2023-08-30T12:05:04;2.17;;;2.07;;
9968;SDS011;5025;48.890;9.278;2023-08-30T12:07:29;2.37;;;2.13;;
9968;SDS011;5025;48.890;9.278;2023-08-30T12:10:05;2.70;;;2.20;;
9968;SDS011;5025;48.890;9.278;2023-08-30T12:12:31;2.50;;;2.30;;
9968;SDS011;5025;48.890;9.278;2023-08-30T12:14:57;2.67;;;2.47;;
9968;SDS011;5025;48.890;9.278;2023-08-30T12:17:22;2.60;;;2.40;;
9968;SDS011;5025;48.890;9.278;2023-08-30T12:19:57;2.90;;;2.70;;
9968;SDS011;5025;48.890;9.278;2023-08-30T12:22:22;2.63;;;2.50;;
9968;SDS011;5025;48.890;9.278;2023-08-30T12:24:48;2.70;;;2.60;;
9968;SDS011;5025;48.890;9.278;2023-08-30T12:27:13;2.70;;;2.60;;
9968;SDS011;5025;48.890;9.278;2023-08-30T12:29:39;2.70;;;2.60;;
9968;SDS011;5025;48.890;9.278;2023-08-30T12:32:05;3.03;;;2.83;;
9968;SDS011;5025;48.890;9.278;2023-08-30T12:34:31;3.30;;;3.10;;
9968;SDS011;5025;48.890;9.278;2023-08-30T12:36:56;2.90;;;2.80;;
9968;SDS011;5025;48.890;9.278;2023-08-30T12:39:21;2.93;;;2.73;;
9968;SDS011;5025;48.890;9.278;2023-08-30T12:41:46;3.00;;;2.90;;
9968;SDS011;5025;48.890;9.278;2023-08-30T12:44:12;2.70;;;2.60;;
9968;SDS011;5025;48.890;9.278;2023-08-30T12:46:37;3.83;;;3.10;;
9968;SDS011;5025;48.890;9.278;2023-08-30T12:49:03;3.53;;;3.33;;
9968;SDS011;5025;48.890;9.278;2023-08-30T12:51:28;3.67;;;3.47;;
9968;SDS011;5025;48.890;9.278;2023-08-30T12:53:55;3.67;;;3.43;;
9968;SDS011;5025;48.890;9.278;2023-08-30T12:56:20;3.57;;;3.37;;
9968;SDS011;5025;48.890;9.278;2023-08-30T12:58:45;3.70;;;3.50;;
9968;SDS011;5025;48.890;9.278;2023-08-30T13:01:11;3.30;;;3.20;;
9968;SDS011;5025;48.890;9.278;2023-08-30T13:03:36;3.00;;;2.90;;
9968;SDS011;5025;48.890;9.278;2023-08-30T13:06:01;3.23;;;3.03;;
9968;SDS011;5025;48.890;9.278;2023-08-30T13:08:28;2.80;;;2.70;;
9968;SDS011;5025;48.890;9.278;2023-08-30T13:10:54;3.00;;;2.80;;
9968;SDS011;5025;48.890;9.278;2023-08-30T13:13:19;2.80;;;2.70;;
9968;SDS011;5025;48.890;9.278;2023-08-30T13:15:46;2.60;;;2.40;;
9968;SDS011;5025;48.890;9.278;2023-08-30T13:18:11;2.90;;;2.70;;
9968;SDS011;5025;48.890;9.278;2023-08-30T13:20:39;2.90;;;2.80;;
9968;SDS011;5025;48.890;9.278;2023-08-30T13:23:04;2.70;;;2.50;;
9968;SDS011;5025;48.890;9.278;2023-08-30T13:25:30;2.80;;;2.70;;
9968;SDS011;5025;48.890;9.278;2023-08-30T13:27:55;2.73;;;2.63;;
9968;SDS011;5025;48.890;9.278;2023-08-30T13:30:20;2.73;;;2.53;;
9968;SDS011;5025;48.890;9.278;2023-08-30T13:32:46;2.50;;;2.40;;
9968;SDS011;5025;48.890;9.278;2023-08-30T13:35:11;2.57;;;2.47;;
9968;SDS011;5025;48.890;9.278;2023-08-30T13:37:36;2.77;;;2.67;;
9968;SDS011;5025;48.890;9.278;2023-08-30T13:40:01;2.87;;;2.67;;
9968;SDS011;5025;48.890;9.278;2023-08-30T13:42:30;2.33;;;2.23;;
9968;SDS011;5025;48.890;9.278;2023-08-30T13:44:56;2.60;;;2.50;;
9968;SDS011;5025;48.890;9.278;2023-08-30T13:47:21;2.70;;;2.50;;
9968;SDS011;5025;48.890;9.278;2023-08-30T13:49:46;2.40;;;2.30;;
9968;SDS011;5025;48.890;9.278;2023-08-30T13:52:12;2.60;;;2.50;;
9968;SDS011;5025;48.890;9.278;2023-08-30T13:54:37;2.50;;;2.40;;
9968;SDS011;5025;48.890;9.278;2023-08-30T13:57:02;2.27;;;2.17;;
9968;SDS011;5025;48.890;9.278;2023-08-30T13:59:28;2.17;;;2.07;;
9968;SDS011;5025;48.890;9.278;2023-08-30T14:01:53;1.93;;;1.83;;
9968;SDS011;5025;48.890;9.278;2023-08-30T14:04:19;1.83;;;1.80;;
9968;SDS011;5025;48.890;9.278;2023-08-30T14:06:44;1.97;;;1.87;;
9968;SDS011;5025;48.890;9.278;2023-08-30T14:09:09;1.60;;;1.60;;
9968;SDS011;5025;48.890;9.278;2023-08-30T14:11:35;2.00;;;1.90;;
9968;SDS011;5025;48.890;9.278;2023-08-30T14:14:02;2.00;;;1.90;;
9968;SDS011;5025;48.890;9.278;2023-08-30T14:16:28;1.80;;;1.70;;
9968;SDS011;5025;48.890;9.278;2023-08-30T14:18:53;1.73;;;1.73;;
9968;SDS011;5025;48.890;9.278;2023-08-30T14:21:18;1.80;;;1.80;;
9968;SDS011;5025;48.890;9.278;2023-08-30T14:23:43;1.80;;;1.80;;
9968;SDS011;5025;48.890;9.278;2023-08-30T14:26:09;1.93;;;1.83;;
9968;SDS011;5025;48.890;9.278;2023-08-30T14:28:37;1.90;;;1.80;;
9968;SDS011;5025;48.890;9.278;2023-08-30T14:31:06;1.83;;;1.80;;
9968;SDS011;5025;48.890;9.278;2023-08-30T14:33:32;1.80;;;1.70;;
9968;SDS011;5025;48.890;9.278;2023-08-30T14:35:58;1.97;;;1.87;;
9968;SDS011;5025;48.890;9.278;2023-08-30T14:38:23;2.03;;;1.93;;
9968;SDS011;5025;48.890;9.278;2023-08-30T14:40:59;2.10;;;1.67;;
9968;SDS011;5025;48.890;9.278;2023-08-30T14:43:25;1.90;;;1.80;;
9968;SDS011;5025;48.890;9.278;2023-08-30T14:45:51;1.93;;;1.83;;
9968;SDS011;5025;48.890;9.278;2023-08-30T14:48:16;1.83;;;1.73;;
9968;SDS011;5025;48.890;9.278;2023-08-30T14:50:42;1.70;;;1.70;;
9968;SDS011;5025;48.890;9.278;2023-08-30T14:53:08;1.70;;;1.60;;
9968;SDS011;5025;48.890;9.278;2023-08-30T14:55:34;1.60;;;1.60;;
9968;SDS011;5025;48.890;9.278;2023-08-30T14:57:59;2.03;;;1.93;;
9968;SDS011;5025;48.890;9.278;2023-08-30T15:00:24;2.10;;;2.00;;
9968;SDS011;5025;48.890;9.278;2023-08-30T15:02:50;1.90;;;1.80;;
9968;SDS011;5025;48.890;9.278;2023-08-30T15:05:15;2.20;;;2.10;;
9968;SDS011;5025;48.890;9.278;2023-08-30T15:07:40;1.90;;;1.80;;
9968;SDS011;5025;48.890;9.278;2023-08-30T15:10:06;2.33;;;2.00;;
9968;SDS011;5025;48.890;9.278;2023-08-30T15:12:31;1.80;;;1.80;;
9968;SDS011;5025;48.890;9.278;2023-08-30T15:14:56;2.07;;;1.93;;